createdAt,value
2018-01-12T00:00:01.275Z,0
2018-01-12T00:01:01.262Z,0
2018-01-12T00:02:01.488Z,0
2018-01-12T00:03:01.475Z,0
2018-01-12T00:04:01.450Z,0
2018-01-12T00:05:00.901Z,0
2018-01-12T00:06:01.136Z,0
2018-01-12T00:07:00.857Z,0
2018-01-12T00:08:01.092Z,0
2018-01-12T00:09:01.279Z,0
2018-01-12T00:10:00.786Z,0
2018-01-12T00:11:01.307Z,0
2018-01-12T00:12:00.475Z,0
2018-01-12T00:13:01.246Z,0
2018-01-12T00:14:01.017Z,0
2018-01-12T00:15:00.939Z,0
2018-01-12T00:16:00.924Z,0
2018-01-12T00:17:01.223Z,0
2018-01-12T00:18:00.622Z,0
2018-01-12T00:19:01.113Z,0
2018-01-12T00:20:00.831Z,0
2018-01-12T00:21:00.812Z,0
2018-01-12T00:22:00.528Z,0
2018-01-12T00:23:00.500Z,0
2018-01-12T00:24:00.734Z,0
2018-01-12T00:25:00.454Z,0
2018-01-12T00:26:00.699Z,0
2018-01-12T00:27:00.418Z,0
2018-01-12T00:28:00.651Z,0
2018-01-12T00:29:00.896Z,0
2018-01-12T00:30:00.607Z,0
2018-01-12T00:31:00.852Z,0
2018-01-12T00:32:00.835Z,0
2018-01-12T00:33:00.274Z,0
2018-01-12T00:34:00.517Z,0
2018-01-12T00:35:00.773Z,0
2018-01-12T00:36:00.477Z,0
2018-01-12T00:37:00.600Z,0
2018-01-12T00:38:00.696Z,0
2018-01-12T00:39:00.405Z,0
2018-01-12T00:40:00.647Z,0
2018-01-12T00:41:00.627Z,0
2018-01-12T00:42:00.077Z,0
2018-01-12T00:43:00.325Z,0
2018-01-12T00:44:00.766Z,0
2018-01-12T00:45:00.273Z,0
2018-01-12T00:46:00.255Z,0
2018-01-12T00:47:00.164Z,0
2018-01-12T00:48:00.210Z,0
2018-01-12T00:49:00.178Z,0
2018-01-12T00:49:59.890Z,0
2018-01-12T00:50:59.883Z,0
2018-01-12T00:52:00.323Z,0
2018-01-12T00:53:00.095Z,0
2018-01-12T00:53:59.807Z,0
2018-01-12T00:55:00.316Z,0
2018-01-12T00:56:00.030Z,0
2018-01-12T00:57:00.411Z,0
2018-01-12T00:58:00.241Z,0
2018-01-12T00:58:59.958Z,0
2018-01-12T01:00:00.231Z,0
2018-01-12T01:01:00.178Z,0
2018-01-12T01:01:59.947Z,0
2018-01-12T01:02:59.877Z,0
2018-01-12T01:03:59.317Z,0
2018-01-12T01:04:59.560Z,0
2018-01-12T01:06:00.065Z,0
2018-01-12T01:06:59.782Z,0
2018-01-12T01:07:59.758Z,0
2018-01-12T01:08:59.740Z,0
2018-01-12T01:09:59.708Z,0
2018-01-12T01:10:59.164Z,0
2018-01-12T01:11:59.927Z,0
2018-01-12T01:12:59.383Z,0
2018-01-12T01:13:59.360Z,0
2018-01-12T01:14:59.075Z,0
2018-01-12T01:15:59.837Z,0
2018-01-12T01:16:59.549Z,0
2018-01-12T01:17:59.795Z,0
2018-01-12T01:18:59.508Z,0
2018-01-12T01:19:59.481Z,0
2018-01-12T01:20:59.201Z,0
2018-01-12T01:21:59.183Z,0
2018-01-12T01:22:59.419Z,0
2018-01-12T01:23:59.654Z,0
2018-01-12T01:24:59.370Z,0
2018-01-12T01:25:59.081Z,0
2018-01-12T01:26:59.324Z,0
2018-01-12T01:27:59.037Z,0
2018-01-12T01:28:59.289Z,0
2018-01-12T01:29:59.519Z,0
2018-01-12T01:30:59.246Z,0
2018-01-12T01:31:58.950Z,0
2018-01-12T01:32:59.606Z,0
2018-01-12T01:33:58.918Z,0
2018-01-12T01:34:59.405Z,0
2018-01-12T01:35:58.862Z,0
2018-01-12T01:36:59.098Z,0
2018-01-12T01:37:58.819Z,0
2018-01-12T01:38:59.524Z,0
2018-01-12T01:39:59.300Z,0
2018-01-12T01:40:59.069Z,0
2018-01-12T01:41:58.722Z,0
2018-01-12T01:42:59.121Z,0
2018-01-12T01:43:59.213Z,0
2018-01-12T01:44:58.427Z,0
2018-01-12T01:45:58.900Z,0
2018-01-12T01:46:58.617Z,0
2018-01-12T01:47:59.117Z,0
2018-01-12T01:48:59.092Z,0
2018-01-12T01:49:59.078Z,0
2018-01-12T01:50:58.787Z,0
2018-01-12T01:51:58.763Z,0
2018-01-12T01:52:59.005Z,0
2018-01-12T01:53:58.986Z,0
2018-01-12T01:54:58.702Z,0
2018-01-12T01:55:58.986Z,0
2018-01-12T01:56:58.386Z,0
2018-01-12T01:57:58.363Z,0
2018-01-12T01:58:58.617Z,0
2018-01-12T01:59:58.586Z,0
2018-01-12T02:00:58.565Z,0
2018-01-12T02:01:58.543Z,0
2018-01-12T02:02:58.523Z,0
2018-01-12T02:03:58.506Z,0
2018-01-12T02:04:58.487Z,0
2018-01-12T02:05:58.452Z,0
2018-01-12T02:06:58.425Z,0
2018-01-12T02:07:57.882Z,0
2018-01-12T02:08:57.857Z,0
2018-01-12T02:09:58.639Z,0
2018-01-12T02:10:58.344Z,0
2018-01-12T02:11:58.580Z,0
2018-01-12T02:12:58.032Z,0
2018-01-12T02:13:58.273Z,0
2018-01-12T02:14:58.259Z,0
2018-01-12T02:15:58.505Z,0
2018-01-12T02:16:58.475Z,0
2018-01-12T02:17:57.922Z,0
2018-01-12T02:18:58.167Z,0
2018-01-12T02:19:57.877Z,0
2018-01-12T02:20:57.856Z,0
2018-01-12T02:21:57.833Z,0
2018-01-12T02:22:58.493Z,0
2018-01-12T02:23:57.789Z,0
2018-01-12T02:24:58.024Z,0
2018-01-12T02:25:58.284Z,0
2018-01-12T02:26:57.985Z,0
2018-01-12T02:27:57.967Z,0
2018-01-12T02:28:57.729Z,0
2018-01-12T02:29:57.920Z,0
2018-01-12T02:30:57.900Z,0
2018-01-12T02:31:57.611Z,0
2018-01-12T02:32:58.122Z,0
2018-01-12T02:33:57.847Z,0
2018-01-12T02:34:58.080Z,0
2018-01-12T02:35:57.792Z,0
2018-01-12T02:36:57.781Z,0
2018-01-12T02:37:57.478Z,0
2018-01-12T02:38:57.724Z,0
2018-01-12T02:39:57.698Z,0
2018-01-12T02:40:57.961Z,0
2018-01-12T02:41:57.659Z,0
2018-01-12T02:42:57.637Z,0
2018-01-12T02:43:57.506Z,0
2018-01-12T02:44:57.334Z,0
2018-01-12T02:45:57.042Z,0
2018-01-12T02:46:57.287Z,0
2018-01-12T02:47:57.530Z,0
2018-01-12T02:48:57.512Z,0
2018-01-12T02:49:57.746Z,0
2018-01-12T02:50:57.200Z,0
2018-01-12T02:51:57.906Z,0
2018-01-12T02:52:57.428Z,0
2018-01-12T02:53:57.394Z,0
2018-01-12T02:54:57.633Z,0
2018-01-12T02:55:57.084Z,0
2018-01-12T02:56:57.060Z,0
2018-01-12T02:57:57.575Z,0
2018-01-12T02:58:57.020Z,0
2018-01-12T02:59:57.262Z,0
2018-01-12T03:00:57.235Z,0
2018-01-12T03:01:57.219Z,0
2018-01-12T03:02:56.934Z,0
2018-01-12T03:03:57.433Z,0
2018-01-12T03:04:57.413Z,0
2018-01-12T03:05:56.862Z,0
2018-01-12T03:06:57.104Z,0
2018-01-12T03:07:57.348Z,0
2018-01-12T03:08:57.062Z,0
2018-01-12T03:09:57.038Z,0
2018-01-12T03:10:56.755Z,0
2018-01-12T03:11:56.998Z,0
2018-01-12T03:12:56.451Z,0
2018-01-12T03:13:56.696Z,0
2018-01-12T03:14:56.936Z,0
2018-01-12T03:15:56.908Z,0
2018-01-12T03:16:56.626Z,0
2018-01-12T03:17:57.132Z,0
2018-01-12T03:18:56.576Z,0
2018-01-12T03:19:57.249Z,0
2018-01-12T03:20:57.061Z,0
2018-01-12T03:21:56.778Z,0
2018-01-12T03:22:56.761Z,0
2018-01-12T03:23:56.997Z,0
2018-01-12T03:24:56.721Z,0
2018-01-12T03:25:56.688Z,0
2018-01-12T03:26:56.406Z,0
2018-01-12T03:27:56.383Z,0
2018-01-12T03:28:56.623Z,0
2018-01-12T03:29:56.500Z,0
2018-01-12T03:30:56.589Z,0
2018-01-12T03:31:56.297Z,0
2018-01-12T03:32:56.798Z,0
2018-01-12T03:33:56.782Z,0
2018-01-12T03:34:56.236Z,0
2018-01-12T03:35:56.478Z,0
2018-01-12T03:36:56.453Z,0
2018-01-12T03:37:56.445Z,0
2018-01-12T03:38:56.154Z,0
2018-01-12T03:39:56.803Z,0
2018-01-12T03:40:56.101Z,0
2018-01-12T03:41:56.610Z,0
2018-01-12T03:42:56.321Z,0
2018-01-12T03:43:56.034Z,0
2018-01-12T03:44:56.013Z,0
2018-01-12T03:45:55.996Z,0
2018-01-12T03:46:55.974Z,0
2018-01-12T03:47:55.946Z,0
2018-01-12T03:48:55.920Z,0
2018-01-12T03:49:56.585Z,0
2018-01-12T03:50:56.140Z,0
2018-01-12T03:51:56.174Z,0
2018-01-12T03:52:56.372Z,0
2018-01-12T03:53:55.816Z,0
2018-01-12T03:54:56.055Z,0
2018-01-12T03:55:56.089Z,0
2018-01-12T03:56:55.750Z,0
2018-01-12T03:57:56.270Z,0
2018-01-12T03:58:55.970Z,0
2018-01-12T03:59:55.946Z,0
2018-01-12T04:00:55.547Z,0
2018-01-12T04:01:55.954Z,0
2018-01-12T04:02:56.151Z,0
2018-01-12T04:03:55.594Z,0
2018-01-12T04:04:56.107Z,0
2018-01-12T04:05:55.556Z,0
2018-01-12T04:06:55.577Z,0
2018-01-12T04:07:55.784Z,0
2018-01-12T04:08:55.752Z,0
2018-01-12T04:09:56.002Z,0
2018-01-12T04:10:55.444Z,0
2018-01-12T04:11:55.682Z,0
2018-01-12T04:12:55.671Z,0
2018-01-12T04:13:55.648Z,0
2018-01-12T04:14:55.630Z,0
2018-01-12T04:15:55.869Z,0
2018-01-12T04:16:55.841Z,0
2018-01-12T04:17:55.562Z,0
2018-01-12T04:18:55.801Z,0
2018-01-12T04:19:55.519Z,0
2018-01-12T04:20:55.386Z,0
2018-01-12T04:21:55.209Z,0
2018-01-12T04:22:55.450Z,0
2018-01-12T04:23:55.688Z,0
2018-01-12T04:24:55.412Z,0
2018-01-12T04:25:54.850Z,0
2018-01-12T04:26:55.355Z,0
2018-01-12T04:27:55.274Z,0
2018-01-12T04:28:55.312Z,0
2018-01-12T04:29:55.291Z,0
2018-01-12T04:30:55.685Z,0
2018-01-12T04:31:55.000Z,0
2018-01-12T04:32:55.233Z,0
2018-01-12T04:33:54.941Z,0
2018-01-12T04:34:54.919Z,0
2018-01-12T04:35:54.897Z,0
2018-01-12T04:36:54.881Z,0
2018-01-12T04:37:55.400Z,0
2018-01-12T04:38:54.838Z,0
2018-01-12T04:39:55.342Z,0
2018-01-12T04:40:55.056Z,0
2018-01-12T04:41:54.766Z,0
2018-01-12T04:42:55.275Z,0
2018-01-12T04:43:55.002Z,0
2018-01-12T04:44:54.704Z,0
2018-01-12T04:45:54.946Z,0
2018-01-12T04:46:54.930Z,0
2018-01-12T04:47:54.636Z,0
2018-01-12T04:48:55.149Z,0
2018-01-12T04:49:54.595Z,0
2018-01-12T04:50:54.575Z,0
2018-01-12T04:51:55.164Z,0
2018-01-12T04:52:55.062Z,0
2018-01-12T04:53:54.509Z,0
2018-01-12T04:54:54.218Z,0
2018-01-12T04:55:54.729Z,0
2018-01-12T04:56:54.184Z,0
2018-01-12T04:57:54.432Z,0
2018-01-12T04:58:54.410Z,0
2018-01-12T04:59:54.912Z,0
2018-01-12T05:00:54.364Z,0
2018-01-12T05:01:54.489Z,0
2018-01-12T05:02:54.588Z,0
2018-01-12T05:03:54.614Z,0
2018-01-12T05:04:54.806Z,0
2018-01-12T05:05:54.516Z,0
2018-01-12T05:06:54.494Z,0
2018-01-12T05:07:54.476Z,0
2018-01-12T05:08:54.460Z,0
2018-01-12T05:09:54.172Z,0
2018-01-12T05:10:54.675Z,0
2018-01-12T05:11:54.812Z,0
2018-01-12T05:12:54.631Z,0
2018-01-12T05:13:54.608Z,0
2018-01-12T05:14:54.056Z,0
2018-01-12T05:15:54.033Z,0
2018-01-12T05:16:54.546Z,0
2018-01-12T05:17:53.989Z,0
2018-01-12T05:18:54.238Z,0
2018-01-12T05:19:53.946Z,0
2018-01-12T05:20:54.457Z,0
2018-01-12T05:21:54.340Z,0
2018-01-12T05:22:54.148Z,0
2018-01-12T05:23:54.388Z,0
2018-01-12T05:24:54.096Z,0
2018-01-12T05:25:53.804Z,0
2018-01-12T05:26:54.049Z,0
2018-01-12T05:27:53.818Z,0
2018-01-12T05:28:54.275Z,0
2018-01-12T05:29:54.258Z,0
2018-01-12T05:30:54.235Z,0
2018-01-12T05:31:53.416Z,0
2018-01-12T05:32:54.077Z,0
2018-01-12T05:33:53.902Z,0
2018-01-12T05:34:53.875Z,0
2018-01-12T05:35:53.590Z,0
2018-01-12T05:36:53.570Z,0
2018-01-12T05:37:53.809Z,0
2018-01-12T05:38:53.794Z,0
2018-01-12T05:39:53.785Z,0
2018-01-12T05:40:53.744Z,0
2018-01-12T05:41:53.997Z,0
2018-01-12T05:42:53.443Z,0
2018-01-12T05:43:53.684Z,0
2018-01-12T05:44:53.139Z,0
2018-01-12T05:45:53.646Z,0
2018-01-12T05:46:53.353Z,0
2018-01-12T05:47:53.592Z,0
2018-01-12T05:48:53.842Z,0
2018-01-12T05:49:53.556Z,0
2018-01-12T05:50:53.264Z,0
2018-01-12T05:51:53.249Z,0
2018-01-12T05:52:53.639Z,0
2018-01-12T05:53:53.198Z,0
2018-01-12T05:54:53.709Z,0
2018-01-12T05:55:53.152Z,0
2018-01-12T05:56:53.398Z,0
2018-01-12T05:57:53.639Z,0
2018-01-12T05:58:53.357Z,0
2018-01-12T05:59:53.340Z,0
2018-01-12T06:00:53.044Z,0
2018-01-12T06:01:53.030Z,0
2018-01-12T06:02:53.274Z,0
2018-01-12T06:03:53.261Z,0
2018-01-12T06:04:53.228Z,0
2018-01-12T06:05:53.209Z,0
2018-01-12T06:06:52.922Z,0
2018-01-12T06:07:53.433Z,0
2018-01-12T06:08:52.609Z,0
2018-01-12T06:09:52.854Z,0
2018-01-12T06:10:53.092Z,0
2018-01-12T06:11:53.339Z,0
2018-01-12T06:12:53.053Z,0
2018-01-12T06:13:52.765Z,0
2018-01-12T06:14:53.210Z,0
2018-01-12T06:15:52.992Z,0
2018-01-12T06:16:53.243Z,0
2018-01-12T06:17:52.686Z,0
2018-01-12T06:18:52.658Z,0
2018-01-12T06:19:52.897Z,0
2018-01-12T06:20:53.140Z,0
2018-01-12T06:21:52.858Z,0
2018-01-12T06:22:52.835Z,0
2018-01-12T06:23:52.970Z,0
2018-01-12T06:24:52.841Z,0
2018-01-12T06:25:52.768Z,0
2018-01-12T06:26:52.751Z,0
2018-01-12T06:27:52.997Z,0
2018-01-12T06:28:52.710Z,0
2018-01-12T06:29:52.950Z,0
2018-01-12T06:30:52.398Z,0
2018-01-12T06:31:52.642Z,0
2018-01-12T06:32:52.622Z,0
2018-01-12T06:33:52.330Z,0
2018-01-12T06:34:52.586Z,0
2018-01-12T06:35:52.824Z,0
2018-01-12T06:36:52.535Z,0
2018-01-12T06:37:52.778Z,0
2018-01-12T06:38:52.907Z,0
2018-01-12T06:39:52.475Z,0
2018-01-12T06:40:52.445Z,0
2018-01-12T06:41:52.431Z,0
2018-01-12T06:42:52.403Z,0
2018-01-12T06:43:52.380Z,0
2018-01-12T06:44:52.360Z,0
2018-01-12T06:45:52.339Z,0
2018-01-12T06:46:52.318Z,0
2018-01-12T06:47:52.296Z,0
2018-01-12T06:48:52.274Z,0
2018-01-12T06:49:52.272Z,0
2018-01-12T06:50:52.229Z,0
2018-01-12T06:51:52.147Z,0
2018-01-12T06:52:52.195Z,0
2018-01-12T06:53:52.166Z,0
2018-01-12T06:54:52.410Z,0
2018-01-12T06:55:51.858Z,0
2018-01-12T06:56:52.098Z,0
2018-01-12T06:57:51.812Z,0
2018-01-12T06:58:52.319Z,0
2018-01-12T06:59:52.034Z,0
2018-01-12T07:00:51.755Z,4
2018-01-12T07:01:52.000Z,4
2018-01-12T07:02:52.243Z,0
2018-01-12T07:03:51.952Z,4
2018-01-12T07:04:51.666Z,4
2018-01-12T07:05:51.648Z,4
2018-01-12T07:06:52.198Z,4
2018-01-12T07:07:51.608Z,4
2018-01-12T07:08:52.112Z,8
2018-01-12T07:09:51.561Z,8
2018-01-12T07:10:52.061Z,8
2018-01-12T07:11:51.515Z,12
2018-01-12T07:12:51.757Z,12
2018-01-12T07:13:51.734Z,16
2018-01-12T07:14:51.445Z,16
2018-01-12T07:15:51.160Z,20
2018-01-12T07:16:51.670Z,24
2018-01-12T07:17:51.647Z,28
2018-01-12T07:18:51.630Z,28
2018-01-12T07:19:51.873Z,36
2018-01-12T07:20:51.852Z,36
2018-01-12T07:21:51.292Z,40
2018-01-12T07:22:51.282Z,48
2018-01-12T07:23:51.524Z,52
2018-01-12T07:24:51.494Z,60
2018-01-12T07:25:51.474Z,60
2018-01-12T07:26:51.459Z,64
2018-01-12T07:27:51.435Z,68
2018-01-12T07:28:51.457Z,72
2018-01-12T07:29:51.390Z,80
2018-01-12T07:30:51.641Z,92
2018-01-12T07:31:51.673Z,104
2018-01-12T07:32:51.590Z,116
2018-01-12T07:33:51.042Z,124
2018-01-12T07:34:51.703Z,136
2018-01-12T07:35:51.264Z,148
2018-01-12T07:36:51.232Z,164
2018-01-12T07:37:51.216Z,180
2018-01-12T07:38:50.932Z,188
2018-01-12T07:39:50.908Z,192
2018-01-12T07:40:51.413Z,200
2018-01-12T07:41:50.868Z,208
2018-01-12T07:42:51.373Z,220
2018-01-12T07:43:50.819Z,232
2018-01-12T07:44:50.800Z,236
2018-01-12T07:45:50.774Z,236
2018-01-12T07:46:51.288Z,240
2018-01-12T07:47:50.739Z,256
2018-01-12T07:48:50.718Z,272
2018-01-12T07:49:50.687Z,280
2018-01-12T07:50:50.415Z,284
2018-01-12T07:51:50.912Z,292
2018-01-12T07:52:51.164Z,308
2018-01-12T07:53:51.136Z,332
2018-01-12T07:54:50.840Z,348
2018-01-12T07:55:50.821Z,364
2018-01-12T07:56:50.795Z,392
2018-01-12T07:57:50.782Z,424
2018-01-12T07:58:50.764Z,452
2018-01-12T07:59:50.995Z,476
2018-01-12T08:00:50.484Z,496
2018-01-12T08:01:50.694Z,512
2018-01-12T08:02:50.682Z,516
2018-01-12T08:03:50.646Z,520
2018-01-12T08:04:50.625Z,524
2018-01-12T08:05:50.340Z,532
2018-01-12T08:06:50.854Z,540
2018-01-12T08:07:50.304Z,552
2018-01-12T08:08:50.322Z,568
2018-01-12T08:09:50.516Z,592
2018-01-12T08:10:50.544Z,620
2018-01-12T08:11:50.209Z,640
2018-01-12T08:12:50.717Z,652
2018-01-12T08:13:50.437Z,668
2018-01-12T08:14:50.414Z,688
2018-01-12T08:15:50.387Z,708
2018-01-12T08:16:50.367Z,712
2018-01-12T08:17:50.340Z,708
2018-01-12T08:18:50.058Z,692
2018-01-12T08:19:50.606Z,684
2018-01-12T08:20:50.016Z,692
2018-01-12T08:21:49.725Z,700
2018-01-12T08:22:49.971Z,732
2018-01-12T08:23:49.958Z,780
2018-01-12T08:24:50.192Z,808
2018-01-12T08:25:50.181Z,816
2018-01-12T08:26:50.415Z,816
2018-01-12T08:27:49.868Z,840
2018-01-12T08:28:50.115Z,872
2018-01-12T08:29:50.082Z,900
2018-01-12T08:30:50.065Z,888
2018-01-12T08:31:50.045Z,840
2018-01-12T08:32:49.760Z,800
2018-01-12T08:33:49.731Z,788
2018-01-12T08:34:49.712Z,800
2018-01-12T08:35:50.231Z,832
2018-01-12T08:36:50.198Z,828
2018-01-12T08:37:49.912Z,812
2018-01-12T08:38:49.668Z,840
2018-01-12T08:39:49.873Z,880
2018-01-12T08:40:49.583Z,884
2018-01-12T08:41:49.831Z,848
2018-01-12T08:42:50.071Z,808
2018-01-12T08:43:50.052Z,804
2018-01-12T08:44:49.505Z,816
2018-01-12T08:45:49.743Z,824
2018-01-12T08:46:49.718Z,828
2018-01-12T08:47:49.437Z,828
2018-01-12T08:48:49.679Z,820
2018-01-12T08:49:49.657Z,840
2018-01-12T08:50:49.371Z,884
2018-01-12T08:51:49.813Z,936
2018-01-12T08:52:49.855Z,980
2018-01-12T08:53:49.307Z,964
2018-01-12T08:54:49.866Z,964
2018-01-12T08:55:49.293Z,984
2018-01-12T08:56:49.243Z,1024
2018-01-12T08:57:49.232Z,1028
2018-01-12T08:58:48.938Z,968
2018-01-12T08:59:49.454Z,960
2018-01-12T09:00:49.432Z,1004
2018-01-12T09:01:49.407Z,1068
2018-01-12T09:02:49.122Z,1080
2018-01-12T09:03:49.642Z,1056
2018-01-12T09:04:49.072Z,1012
2018-01-12T09:05:49.697Z,1040
2018-01-12T09:06:49.299Z,1112
2018-01-12T09:07:49.291Z,1192
2018-01-12T09:08:49.250Z,1132
2018-01-12T09:09:49.239Z,1184
2018-01-12T09:10:49.213Z,1228
2018-01-12T09:11:48.925Z,1248
2018-01-12T09:12:49.176Z,1208
2018-01-12T09:13:48.880Z,1228
2018-01-12T09:14:49.127Z,1188
2018-01-12T09:15:49.109Z,1284
2018-01-12T09:16:49.109Z,1292
2018-01-12T09:17:48.534Z,1276
2018-01-12T09:18:48.512Z,1284
2018-01-12T09:19:49.285Z,1324
2018-01-12T09:20:48.475Z,1380
2018-01-12T09:21:48.712Z,1456
2018-01-12T09:22:49.220Z,1528
2018-01-12T09:23:48.942Z,1580
2018-01-12T09:24:49.182Z,1660
2018-01-12T09:25:48.906Z,1788
2018-01-12T09:26:48.889Z,1860
2018-01-12T09:27:48.593Z,1908
2018-01-12T09:28:49.098Z,1916
2018-01-12T09:29:48.809Z,1892
2018-01-12T09:30:48.526Z,1876
2018-01-12T09:31:48.509Z,1892
2018-01-12T09:32:48.811Z,1920
2018-01-12T09:33:48.468Z,1924
2018-01-12T09:34:48.443Z,1916
2018-01-12T09:35:48.687Z,1916
2018-01-12T09:36:48.412Z,1940
2018-01-12T09:37:48.642Z,1984
2018-01-12T09:38:48.356Z,2064
2018-01-12T09:39:48.868Z,2136
2018-01-12T09:40:48.054Z,2092
2018-01-12T09:41:48.037Z,1900
2018-01-12T09:42:48.547Z,1764
2018-01-12T09:43:48.519Z,1800
2018-01-12T09:44:47.971Z,1848
2018-01-12T09:45:48.476Z,1780
2018-01-12T09:46:48.190Z,1644
2018-01-12T09:47:48.173Z,1568
2018-01-12T09:48:48.408Z,1512
2018-01-12T09:49:48.128Z,1484
2018-01-12T09:50:48.111Z,1492
2018-01-12T09:51:48.089Z,1516
2018-01-12T09:52:48.066Z,1532
2018-01-12T09:53:48.309Z,1568
2018-01-12T09:54:48.292Z,1560
2018-01-12T09:55:48.005Z,1576
2018-01-12T09:56:48.252Z,1604
2018-01-12T09:57:48.232Z,1588
2018-01-12T09:58:48.522Z,1608
2018-01-12T09:59:48.190Z,1640
2018-01-12T10:00:48.165Z,1692
2018-01-12T10:01:48.146Z,1632
2018-01-12T10:02:48.398Z,1548
2018-01-12T10:03:48.101Z,1500
2018-01-12T10:04:47.895Z,1500
2018-01-12T10:05:48.060Z,1492
2018-01-12T10:06:47.784Z,1516
2018-01-12T10:07:48.026Z,1524
2018-01-12T10:08:48.262Z,1572
2018-01-12T10:09:47.988Z,1628
2018-01-12T10:10:47.965Z,1580
2018-01-12T10:11:48.302Z,1524
2018-01-12T10:12:47.657Z,1460
2018-01-12T10:13:47.636Z,1460
2018-01-12T10:14:47.634Z,1460
2018-01-12T10:15:47.863Z,1508
2018-01-12T10:16:47.831Z,1532
2018-01-12T10:17:47.285Z,1548
2018-01-12T10:18:47.798Z,1580
2018-01-12T10:19:47.784Z,1608
2018-01-12T10:20:47.754Z,1628
2018-01-12T10:21:47.477Z,1712
2018-01-12T10:22:47.714Z,1708
2018-01-12T10:23:47.695Z,1668
2018-01-12T10:24:47.930Z,1700
2018-01-12T10:25:47.391Z,1768
2018-01-12T10:26:47.897Z,1820
2018-01-12T10:27:47.350Z,1836
2018-01-12T10:28:47.326Z,1844
2018-01-12T10:29:47.307Z,1836
2018-01-12T10:30:47.287Z,1808
2018-01-12T10:31:47.684Z,1716
2018-01-12T10:32:47.507Z,1676
2018-01-12T10:33:47.490Z,1716
2018-01-12T10:34:47.205Z,1776
2018-01-12T10:35:47.185Z,1760
2018-01-12T10:36:47.690Z,1680
2018-01-12T10:37:47.411Z,1600
2018-01-12T10:38:47.129Z,1568
2018-01-12T10:39:47.365Z,1556
2018-01-12T10:40:46.820Z,1512
2018-01-12T10:41:47.584Z,1604
2018-01-12T10:42:47.045Z,1748
2018-01-12T10:43:47.026Z,1764
2018-01-12T10:44:46.999Z,1716
2018-01-12T10:45:46.722Z,1748
2018-01-12T10:46:47.489Z,1716
2018-01-12T10:47:46.947Z,1732
2018-01-12T10:48:47.442Z,1772
2018-01-12T10:49:46.901Z,1784
2018-01-12T10:50:47.402Z,1792
2018-01-12T10:51:47.280Z,1772
2018-01-12T10:52:47.105Z,1752
2018-01-12T10:53:46.549Z,1788
2018-01-12T10:54:47.055Z,1820
2018-01-12T10:55:47.301Z,1864
2018-01-12T10:56:46.753Z,1840
2018-01-12T10:57:46.743Z,1844
2018-01-12T10:58:46.981Z,1828
2018-01-12T10:59:46.961Z,1840
2018-01-12T11:00:46.945Z,1868
2018-01-12T11:01:46.920Z,1824
2018-01-12T11:02:46.899Z,1784
2018-01-12T11:03:47.151Z,1748
2018-01-12T11:04:47.125Z,1772
2018-01-12T11:05:46.571Z,1816
2018-01-12T11:06:46.884Z,1816
2018-01-12T11:07:46.793Z,1808
2018-01-12T11:08:47.038Z,1760
2018-01-12T11:09:46.489Z,1828
2018-01-12T11:10:46.735Z,2008
2018-01-12T11:11:46.713Z,2096
2018-01-12T11:12:46.962Z,2100
2018-01-12T11:13:46.143Z,2040
2018-01-12T11:14:46.652Z,1988
2018-01-12T11:15:46.630Z,1968
2018-01-12T11:16:46.875Z,2016
2018-01-12T11:17:46.327Z,2112
2018-01-12T11:18:46.564Z,2104
2018-01-12T11:19:46.811Z,2172
2018-01-12T11:20:46.262Z,2200
2018-01-12T11:21:46.248Z,2212
2018-01-12T11:22:46.224Z,2256
2018-01-12T11:23:46.730Z,2264
2018-01-12T11:24:46.449Z,2220
2018-01-12T11:25:45.893Z,2116
2018-01-12T11:26:46.146Z,2004
2018-01-12T11:27:46.555Z,1988
2018-01-12T11:28:45.835Z,2076
2018-01-12T11:29:45.821Z,2088
2018-01-12T11:30:46.336Z,2036
2018-01-12T11:31:46.572Z,2016
2018-01-12T11:32:46.021Z,1976
2018-01-12T11:33:46.521Z,2040
2018-01-12T11:34:46.255Z,2176
2018-01-12T11:35:45.960Z,2200
2018-01-12T11:36:46.202Z,2132
2018-01-12T11:37:46.191Z,2032
2018-01-12T11:38:45.639Z,1972
2018-01-12T11:39:45.615Z,1912
2018-01-12T11:40:45.860Z,1884
2018-01-12T11:41:46.100Z,1868
2018-01-12T11:42:46.361Z,1888
2018-01-12T11:43:45.793Z,1948
2018-01-12T11:44:45.781Z,1984
2018-01-12T11:45:45.749Z,1988
2018-01-12T11:46:45.740Z,1980
2018-01-12T11:47:45.976Z,1972
2018-01-12T11:48:45.697Z,1928
2018-01-12T11:49:45.949Z,1868
2018-01-12T11:50:45.916Z,1796
2018-01-12T11:51:45.641Z,1744
2018-01-12T11:52:45.881Z,1712
2018-01-12T11:53:46.124Z,1676
2018-01-12T11:54:45.838Z,1636
2018-01-12T11:55:45.288Z,1616
2018-01-12T11:56:46.059Z,1604
2018-01-12T11:57:45.780Z,1616
2018-01-12T11:58:46.031Z,1644
2018-01-12T11:59:45.211Z,1712
2018-01-12T12:00:45.456Z,1800
2018-01-12T12:01:45.958Z,1924
2018-01-12T12:02:45.937Z,2036
2018-01-12T12:03:45.391Z,2120
2018-01-12T12:04:45.376Z,2176
2018-01-12T12:05:45.617Z,2176
2018-01-12T12:06:45.605Z,2124
2018-01-12T12:07:45.575Z,2096
2018-01-12T12:08:45.824Z,2128
2018-01-12T12:09:45.536Z,2092
2018-01-12T12:10:45.251Z,1976
2018-01-12T12:11:45.301Z,1788
2018-01-12T12:12:45.475Z,1616
2018-01-12T12:13:45.452Z,1544
2018-01-12T12:14:45.435Z,1488
2018-01-12T12:15:45.679Z,1492
2018-01-12T12:16:45.391Z,1496
2018-01-12T12:17:45.639Z,1488
2018-01-12T12:18:45.359Z,1492
2018-01-12T12:19:45.333Z,1480
2018-01-12T12:20:45.320Z,1456
2018-01-12T12:21:45.087Z,1440
2018-01-12T12:22:45.019Z,1452
2018-01-12T12:23:45.520Z,1488
2018-01-12T12:24:45.232Z,1520
2018-01-12T12:25:45.213Z,1544
2018-01-12T12:26:45.194Z,1532
2018-01-12T12:27:45.433Z,1572
2018-01-12T12:28:45.165Z,1564
2018-01-12T12:29:44.875Z,1532
2018-01-12T12:30:44.847Z,1584
2018-01-12T12:31:44.837Z,1588
2018-01-12T12:32:45.338Z,1580
2018-01-12T12:33:45.056Z,1584
2018-01-12T12:34:45.302Z,1576
2018-01-12T12:35:44.485Z,1560
2018-01-12T12:36:45.040Z,1592
2018-01-12T12:37:44.987Z,1628
2018-01-12T12:38:45.015Z,1640
2018-01-12T12:39:44.933Z,1640
2018-01-12T12:40:44.920Z,1632
2018-01-12T12:41:45.162Z,1640
2018-01-12T12:42:44.894Z,1628
2018-01-12T12:43:44.593Z,1632
2018-01-12T12:44:44.871Z,1640
2018-01-12T12:45:44.556Z,1628
2018-01-12T12:46:45.054Z,1592
2018-01-12T12:47:44.514Z,1516
2018-01-12T12:48:44.495Z,1428
2018-01-12T12:49:44.473Z,1396
2018-01-12T12:50:44.451Z,1412
2018-01-12T12:51:44.698Z,1484
2018-01-12T12:52:44.626Z,1496
2018-01-12T12:53:44.655Z,1468
2018-01-12T12:54:44.637Z,1464
2018-01-12T12:55:44.092Z,1452
2018-01-12T12:56:44.070Z,1440
2018-01-12T12:57:44.585Z,1404
2018-01-12T12:58:44.826Z,1388
2018-01-12T12:59:44.558Z,1384
2018-01-12T13:00:44.521Z,1400
2018-01-12T13:01:44.506Z,1412
2018-01-12T13:02:43.950Z,1424
2018-01-12T13:03:44.460Z,1412
2018-01-12T13:04:44.182Z,1376
2018-01-12T13:05:44.156Z,1332
2018-01-12T13:06:44.404Z,1312
2018-01-12T13:07:44.639Z,1316
2018-01-12T13:08:44.364Z,1328
2018-01-12T13:09:44.336Z,1352
2018-01-12T13:10:44.057Z,1392
2018-01-12T13:11:44.034Z,1424
2018-01-12T13:12:44.014Z,1440
2018-01-12T13:13:44.521Z,1448
2018-01-12T13:14:43.974Z,1448
2018-01-12T13:15:44.222Z,1436
2018-01-12T13:16:43.936Z,1416
2018-01-12T13:17:44.181Z,1368
2018-01-12T13:18:43.894Z,1316
2018-01-12T13:19:44.405Z,1272
2018-01-12T13:20:44.405Z,1224
2018-01-12T13:21:44.366Z,1188
2018-01-12T13:22:44.078Z,1160
2018-01-12T13:23:44.211Z,1144
2018-01-12T13:24:44.035Z,1132
2018-01-12T13:25:43.491Z,1124
2018-01-12T13:26:43.476Z,1120
2018-01-12T13:27:43.982Z,1120
2018-01-12T13:28:43.702Z,1120
2018-01-12T13:29:43.681Z,1116
2018-01-12T13:30:43.661Z,1116
2018-01-12T13:31:43.688Z,1116
2018-01-12T13:32:43.893Z,1132
2018-01-12T13:33:43.863Z,1160
2018-01-12T13:34:43.577Z,1204
2018-01-12T13:35:43.820Z,1248
2018-01-12T13:36:43.804Z,1284
2018-01-12T13:37:43.519Z,1316
2018-01-12T13:38:43.763Z,1328
2018-01-12T13:39:43.763Z,1324
2018-01-12T13:40:43.722Z,1284
2018-01-12T13:41:43.433Z,1212
2018-01-12T13:42:43.415Z,1116
2018-01-12T13:43:43.717Z,1028
2018-01-12T13:44:43.372Z,984
2018-01-12T13:45:43.350Z,976
2018-01-12T13:46:43.871Z,972
2018-01-12T13:47:43.582Z,984
2018-01-12T13:48:43.293Z,1024
2018-01-12T13:49:43.538Z,1060
2018-01-12T13:50:43.784Z,1080
2018-01-12T13:51:43.505Z,1084
2018-01-12T13:52:43.472Z,1076
2018-01-12T13:53:43.462Z,1068
2018-01-12T13:54:43.440Z,1068
2018-01-12T13:55:43.692Z,1096
2018-01-12T13:56:43.408Z,1120
2018-01-12T13:57:43.117Z,1124
2018-01-12T13:58:42.831Z,1128
2018-01-12T13:59:43.347Z,1144
2018-01-12T14:00:43.316Z,1148
2018-01-12T14:01:43.044Z,1168
2018-01-12T14:02:43.274Z,1188
2018-01-12T14:03:43.262Z,1180
2018-01-12T14:04:42.974Z,1168
2018-01-12T14:05:42.957Z,1156